createdAt,value
2019-04-21T00:00:00.450Z,1027.16
2019-04-21T00:01:08.602Z,1027.17
2019-04-21T00:02:08.890Z,1027.15
2019-04-21T00:03:20.631Z,1027.14
2019-04-21T00:04:30.423Z,1027.11
2019-04-21T00:05:40.110Z,1027.10
2019-04-21T00:06:48.153Z,1027.09
2019-04-21T00:07:51.095Z,1027.10
2019-04-21T00:08:57.946Z,1027.11
2019-04-21T00:10:04.035Z,1027.11
2019-04-21T00:11:04.344Z,1027.08
2019-04-21T00:12:08.958Z,1027.05
2019-04-21T00:13:08.099Z,1027.04
2019-04-21T00:14:11.424Z,1027.05
2019-04-21T00:15:09.672Z,1027.06
2019-04-21T00:16:07.436Z,1027.08
2019-04-21T00:17:12.922Z,1027.07
2019-04-21T00:18:14.350Z,1027.06
2019-04-21T00:19:22.634Z,1027.05
2019-04-21T00:20:30.942Z,1027.06
2019-04-21T00:21:34.407Z,1027.06
2019-04-21T00:22:41.959Z,1027.05
2019-04-21T00:23:53.791Z,1027.04
2019-04-21T00:24:51.900Z,1027.03
2019-04-21T00:25:51.244Z,1027.01
2019-04-21T00:27:05.605Z,1027.00
2019-04-21T00:28:21.705Z,1027.00
2019-04-21T00:29:16.593Z,1026.97
2019-04-21T00:30:21.802Z,1026.95
2019-04-21T00:31:23.176Z,1026.94
2019-04-21T00:32:21.907Z,1026.90
2019-04-21T00:33:17.601Z,1026.89
2019-04-21T00:34:17.493Z,1026.86
2019-04-21T00:35:25.773Z,1026.85
2019-04-21T00:36:37.756Z,1026.84
2019-04-21T00:37:48.284Z,1026.85
2019-04-21T00:39:09.636Z,1026.84
2019-04-21T00:39:59.963Z,1026.82
2019-04-21T00:41:09.226Z,1026.82
2019-04-21T00:42:05.175Z,1026.81
2019-04-21T00:43:12.907Z,1026.82
2019-04-21T00:44:08.491Z,1026.80
2019-04-21T00:45:15.148Z,1026.77
2019-04-21T00:46:12.326Z,1026.79
2019-04-21T00:47:30.624Z,1026.77
2019-04-21T00:48:36.522Z,1026.76
2019-04-21T00:49:26.941Z,1026.75
2019-04-21T00:51:01.689Z,1026.74
2019-04-21T00:51:54.122Z,1026.74
2019-04-21T00:52:58.026Z,1026.71
2019-04-21T00:53:58.529Z,1026.72
2019-04-21T00:55:07.629Z,1026.71
2019-04-21T00:56:15.614Z,1026.69
2019-04-21T00:57:12.039Z,1026.68
2019-04-21T00:58:17.534Z,1026.68
2019-04-21T00:59:20.126Z,1026.68
2019-04-21T01:00:22.134Z,1026.65
2019-04-21T01:01:26.738Z,1026.64
2019-04-21T01:02:35.009Z,1026.63
2019-04-21T01:03:36.178Z,1026.60
2019-04-21T01:04:39.979Z,1026.60
2019-04-21T01:05:49.690Z,1026.59
2019-04-21T01:06:49.652Z,1026.60
2019-04-21T01:07:46.983Z,1026.59
2019-04-21T01:08:55.262Z,1026.59
2019-04-21T01:09:48.546Z,1026.60
2019-04-21T01:10:52.787Z,1026.60
2019-04-21T01:12:08.088Z,1026.60
2019-04-21T01:13:18.376Z,1026.59
2019-04-21T01:14:25.983Z,1026.59
2019-04-21T01:15:26.407Z,1026.60
2019-04-21T01:16:31.080Z,1026.57
2019-04-21T01:17:32.145Z,1026.57
2019-04-21T01:18:33.223Z,1026.57
2019-04-21T01:19:33.743Z,1026.58
2019-04-21T01:20:18.808Z,1026.58
2019-04-21T01:21:24.995Z,1026.57
2019-04-21T01:22:28.646Z,1026.58
2019-04-21T01:23:33.705Z,1026.59
2019-04-21T01:24:42.950Z,1026.59
2019-04-21T01:25:50.414Z,1026.59
2019-04-21T01:26:59.125Z,1026.59
2019-04-21T01:28:05.024Z,1026.59
2019-04-21T01:29:11.818Z,1026.60
2019-04-21T01:30:19.245Z,1026.59
2019-04-21T01:31:17.089Z,1026.58
2019-04-21T01:32:29.718Z,1026.59
2019-04-21T01:33:33.591Z,1026.60
2019-04-21T01:34:39.418Z,1026.63
2019-04-21T01:35:39.674Z,1026.61
2019-04-21T01:36:38.760Z,1026.63
2019-04-21T01:37:49.482Z,1026.59
2019-04-21T01:38:56.573Z,1026.57
2019-04-21T01:40:04.691Z,1026.57
2019-04-21T01:41:10.002Z,1026.55
2019-04-21T01:42:03.560Z,1026.51
2019-04-21T01:43:07.734Z,1026.50
2019-04-21T01:44:22.424Z,1026.49
2019-04-21T01:45:18.891Z,1026.46
2019-04-21T01:46:19.558Z,1026.46
2019-04-21T01:47:20.484Z,1026.46
2019-04-21T01:48:24.389Z,1026.45
2019-04-21T01:49:28.623Z,1026.44
2019-04-21T01:50:36.288Z,1026.45
2019-04-21T01:51:46.777Z,1026.44
2019-04-21T01:52:53.134Z,1026.44
2019-04-21T01:53:59.556Z,1026.44
2019-04-21T01:55:02.684Z,1026.46
2019-04-21T01:56:00.558Z,1026.48
2019-04-21T01:58:01.440Z,1026.48
2019-04-21T01:59:01.533Z,1026.47
2019-04-21T02:00:12.543Z,1026.48
2019-04-21T02:01:23.051Z,1026.46
2019-04-21T02:02:28.067Z,1026.43
2019-04-21T02:03:50.185Z,1026.44
2019-04-21T02:04:41.298Z,1026.45
2019-04-21T02:05:46.677Z,1026.43
2019-04-21T02:06:44.365Z,1026.45
2019-04-21T02:07:44.767Z,1026.42
2019-04-21T02:08:49.074Z,1026.42
2019-04-21T02:10:00.819Z,1026.41
2019-04-21T02:11:05.251Z,1026.40
2019-04-21T02:12:10.102Z,1026.42
2019-04-21T02:13:09.022Z,1026.40
2019-04-21T02:14:17.593Z,1026.40
2019-04-21T02:15:26.845Z,1026.42
2019-04-21T02:16:23.096Z,1026.43
2019-04-21T02:17:29.219Z,1026.41
2019-04-21T02:18:33.914Z,1026.42
2019-04-21T02:19:31.577Z,1026.43
2019-04-21T02:20:31.725Z,1026.43
2019-04-21T02:21:41.050Z,1026.43
2019-04-21T02:23:07.418Z,1026.43
2019-04-21T02:23:59.044Z,1026.44
2019-04-21T02:25:01.000Z,1026.41
2019-04-21T02:26:08.026Z,1026.41
2019-04-21T02:27:08.586Z,1026.40
2019-04-21T02:28:13.430Z,1026.38
2019-04-21T02:29:20.635Z,1026.37
2019-04-21T02:30:29.388Z,1026.35
2019-04-21T02:31:39.383Z,1026.34
2019-04-21T02:32:48.457Z,1026.34
2019-04-21T02:33:45.878Z,1026.39
2019-04-21T02:34:49.086Z,1026.37
2019-04-21T02:37:06.535Z,1026.39
2019-04-21T02:38:03.762Z,1026.39
2019-04-21T02:39:15.895Z,1026.41
2019-04-21T02:40:11.246Z,1026.39
2019-04-21T02:41:05.835Z,1026.38
2019-04-21T02:42:23.814Z,1026.38
2019-04-21T02:44:30.216Z,1026.35
2019-04-21T02:45:30.186Z,1026.35
2019-04-21T02:47:47.964Z,1026.32
2019-04-21T02:48:49.024Z,1026.30
2019-04-21T02:49:56.608Z,1026.28
2019-04-21T02:51:04.742Z,1026.29
2019-04-21T02:52:01.263Z,1026.28
2019-04-21T02:54:37.345Z,1026.26
2019-04-21T02:55:22.182Z,1026.24
2019-04-21T02:57:18.535Z,1026.17
2019-04-21T02:58:25.046Z,1026.17
2019-04-21T02:59:23.651Z,1026.13
2019-04-21T03:00:30.345Z,1026.13
2019-04-21T03:05:53.058Z,1026.08
2019-04-21T03:07:03.730Z,1026.09
2019-04-21T03:08:09.864Z,1026.08
2019-04-21T03:09:09.185Z,1026.08
2019-04-21T03:10:28.687Z,1026.06
2019-04-21T03:11:49.007Z,1026.05
2019-04-21T03:13:26.700Z,1026.04
2019-04-21T03:15:31.161Z,1026.03
2019-04-21T03:16:26.487Z,1026.02
2019-04-21T03:20:51.012Z,1026.00
2019-04-21T03:22:02.994Z,1026.00
2019-04-21T03:23:00.326Z,1026.03
2019-04-21T03:23:58.337Z,1026.02
2019-04-21T03:27:34.896Z,1025.99
2019-04-21T03:28:16.174Z,1025.96
2019-04-21T03:29:28.284Z,1025.95
2019-04-21T03:30:52.964Z,1025.96
2019-04-21T03:31:55.445Z,1025.96
2019-04-21T03:33:16.662Z,1025.97
2019-04-21T03:36:12.879Z,1025.98
2019-04-21T03:38:16.620Z,1025.94
2019-04-21T03:39:17.902Z,1025.94
2019-04-21T03:41:12.640Z,1025.91
2019-04-21T03:43:20.881Z,1025.87
2019-04-21T03:44:24.707Z,1025.85
2019-04-21T03:45:32.636Z,1025.84
2019-04-21T03:46:35.786Z,1025.81
2019-04-21T03:47:39.844Z,1025.80
2019-04-21T03:48:42.726Z,1025.79
2019-04-21T03:50:48.311Z,1025.80
2019-04-21T03:52:03.783Z,1025.84
2019-04-21T03:54:00.190Z,1025.84
2019-04-21T03:55:36.080Z,1025.81
2019-04-21T03:57:21.989Z,1025.82
2019-04-21T03:58:47.003Z,1025.83
2019-04-21T03:59:16.112Z,1025.82
2019-04-21T04:01:41.203Z,1025.82
2019-04-21T04:02:45.133Z,1025.81
2019-04-21T04:04:44.163Z,1025.84
2019-04-21T04:07:08.231Z,1025.83
2019-04-21T04:08:18.512Z,1025.85
2019-04-21T04:12:13.181Z,1025.87
2019-04-21T04:13:37.637Z,1025.87
2019-04-21T04:14:22.852Z,1025.87
2019-04-21T04:15:34.763Z,1025.85
2019-04-21T04:17:32.993Z,1025.84
2019-04-21T04:20:51.681Z,1025.84
2019-04-21T04:22:01.280Z,1025.81
2019-04-21T04:23:08.048Z,1025.81
2019-04-21T04:25:07.030Z,1025.81
2019-04-21T04:28:19.461Z,1025.80
2019-04-21T04:29:24.504Z,1025.83
2019-04-21T04:31:37.664Z,1025.81
2019-04-21T04:32:34.740Z,1025.82
2019-04-21T04:34:49.805Z,1025.84
2019-04-21T04:36:03.816Z,1025.86
2019-04-21T04:37:12.702Z,1025.87
2019-04-21T04:37:59.185Z,1025.88
2019-04-21T04:39:14.183Z,1025.88
2019-04-21T04:40:09.991Z,1025.88
2019-04-21T04:41:16.245Z,1025.87
2019-04-21T04:43:19.883Z,1025.88
2019-04-21T04:44:32.263Z,1025.89
2019-04-21T04:45:37.325Z,1025.88
2019-04-21T04:46:37.673Z,1025.87
2019-04-21T04:47:32.907Z,1025.87
2019-04-21T04:48:39.033Z,1025.88
2019-04-21T04:49:48.068Z,1025.88
2019-04-21T04:50:49.473Z,1025.87
2019-04-21T04:52:51.313Z,1025.88
2019-04-21T04:55:03.743Z,1025.86
2019-04-21T04:57:14.487Z,1025.85
2019-04-21T04:58:54.675Z,1025.85
2019-04-21T04:59:43.666Z,1025.84
2019-04-21T05:01:32.375Z,1025.83
2019-04-21T05:05:53.244Z,1025.82
2019-04-21T05:08:01.625Z,1025.77
2019-04-21T05:09:59.638Z,1025.76
2019-04-21T05:11:20.716Z,1025.73
2019-04-21T05:12:01.648Z,1025.71
2019-04-21T05:13:21.318Z,1025.74
2019-04-21T05:14:16.744Z,1025.71
2019-04-21T05:15:16.200Z,1025.70
2019-04-21T05:17:38.604Z,1025.69
2019-04-21T05:18:50.438Z,1025.67
2019-04-21T05:19:42.666Z,1025.67
2019-04-21T05:20:49.232Z,1025.63
2019-04-21T05:21:49.825Z,1025.60
2019-04-21T05:22:48.877Z,1025.55
2019-04-21T05:23:48.391Z,1025.54
2019-04-21T05:24:49.264Z,1025.54
2019-04-21T05:25:52.176Z,1025.54
2019-04-21T05:26:55.418Z,1025.51
2019-04-21T05:27:57.813Z,1025.51
2019-04-21T05:29:01.922Z,1025.49
2019-04-21T05:30:16.954Z,1025.49
2019-04-21T05:31:23.053Z,1025.46
2019-04-21T05:32:39.785Z,1025.43
2019-04-21T05:33:30.735Z,1025.43
2019-04-21T05:34:31.934Z,1025.46
2019-04-21T05:35:32.389Z,1025.44
2019-04-21T05:36:39.560Z,1025.43
2019-04-21T05:37:43.730Z,1025.43
2019-04-21T05:38:41.786Z,1025.38
2019-04-21T05:39:49.233Z,1025.34
2019-04-21T05:40:51.347Z,1025.31
2019-04-21T05:41:47.473Z,1025.30
2019-04-21T05:43:04.409Z,1025.28
2019-04-21T05:44:10.501Z,1025.22
2019-04-21T05:46:21.605Z,1025.19
2019-04-21T05:48:30.624Z,1025.12
2019-04-21T05:49:27.977Z,1025.09
2019-04-21T05:50:32.095Z,1025.05
2019-04-21T05:51:35.575Z,1025.08
2019-04-21T05:52:38.354Z,1025.08
2019-04-21T05:53:48.056Z,1025.07
2019-04-21T05:54:59.646Z,1025.06
2019-04-21T05:56:01.714Z,1025.06
2019-04-21T05:57:01.109Z,1025.05
2019-04-21T05:57:58.509Z,1025.04
2019-04-21T05:59:10.283Z,1025.04
2019-04-21T06:00:15.480Z,1025.03
2019-04-21T06:01:24.328Z,1025.03
2019-04-21T06:02:27.751Z,1025.03
2019-04-21T06:03:30.739Z,1025.02
2019-04-21T06:04:52.086Z,1025.02
2019-04-21T06:05:47.862Z,1025.03
2019-04-21T06:06:43.586Z,1025.02
2019-04-21T06:07:42.840Z,1025.01
2019-04-21T06:08:48.329Z,1024.99
2019-04-21T06:09:56.891Z,1024.94
2019-04-21T06:11:16.137Z,1024.93
2019-04-21T06:12:03.475Z,1024.91
2019-04-21T06:13:13.339Z,1024.92
2019-04-21T06:14:29.410Z,1024.93
2019-04-21T06:15:16.640Z,1024.92
2019-04-21T06:16:21.507Z,1024.92
2019-04-21T06:17:33.004Z,1024.90
2019-04-21T06:18:35.405Z,1024.91
2019-04-21T06:19:38.572Z,1024.88
2019-04-21T06:20:33.469Z,1024.90
2019-04-21T06:21:40.461Z,1024.88
2019-04-21T06:22:46.311Z,1024.89
2019-04-21T06:23:47.789Z,1024.87
2019-04-21T06:25:21.977Z,1024.85
2019-04-21T06:26:27.048Z,1024.86
2019-04-21T06:27:22.938Z,1024.86
2019-04-21T06:28:04.801Z,1024.86
2019-04-21T06:29:10.212Z,1024.83
2019-04-21T06:30:12.074Z,1024.81
2019-04-21T06:31:40.841Z,1024.82
2019-04-21T06:32:46.130Z,1024.81
2019-04-21T06:33:44.815Z,1024.81
2019-04-21T06:34:47.590Z,1024.80
2019-04-21T06:35:48.775Z,1024.79
2019-04-21T06:36:53.175Z,1024.78
2019-04-21T06:37:49.477Z,1024.78
2019-04-21T06:39:00.019Z,1024.76
2019-04-21T06:40:09.239Z,1024.75
2019-04-21T06:41:07.561Z,1024.73
2019-04-21T06:42:03.669Z,1024.71
2019-04-21T06:43:24.538Z,1024.71
2019-04-21T06:44:13.011Z,1024.71
2019-04-21T06:45:25.441Z,1024.70
2019-04-21T06:46:25.615Z,1024.72
2019-04-21T06:47:29.978Z,1024.72
2019-04-21T06:48:36.643Z,1024.71
2019-04-21T06:49:31.384Z,1024.69
2019-04-21T06:50:41.167Z,1024.69
2019-04-21T06:51:58.252Z,1024.66
2019-04-21T06:55:00.072Z,1024.63
2019-04-21T06:56:00.002Z,1024.64
2019-04-21T06:57:03.289Z,1024.62
2019-04-21T06:58:08.403Z,1024.61
2019-04-21T06:59:09.737Z,1024.56
2019-04-21T07:00:12.086Z,1024.57
2019-04-21T07:01:26.598Z,1024.56
2019-04-21T07:03:34.766Z,1024.56
2019-04-21T07:04:36.819Z,1024.57
2019-04-21T07:05:40.971Z,1024.58
2019-04-21T07:07:00.470Z,1024.59
2019-04-21T07:08:05.192Z,1024.59
2019-04-21T07:09:02.915Z,1024.60
2019-04-21T07:09:57.069Z,1024.58
2019-04-21T07:10:56.737Z,1024.59
2019-04-21T07:12:04.178Z,1024.58
2019-04-21T07:13:04.980Z,1024.59
2019-04-21T07:15:20.140Z,1024.56
2019-04-21T07:16:25.456Z,1024.58
2019-04-21T07:17:46.952Z,1024.58
2019-04-21T07:18:39.815Z,1024.58
2019-04-21T07:19:35.177Z,1024.56
2019-04-21T07:20:39.246Z,1024.55
2019-04-21T07:21:39.833Z,1024.53
2019-04-21T07:22:48.062Z,1024.50
2019-04-21T07:23:57.229Z,1024.47
2019-04-21T07:24:58.984Z,1024.45
2019-04-21T07:26:01.157Z,1024.44
2019-04-21T07:27:00.226Z,1024.47
2019-04-21T07:28:10.923Z,1024.46
2019-04-21T07:29:14.214Z,1024.45
2019-04-21T07:30:23.127Z,1024.45
2019-04-21T07:31:25.183Z,1024.45
2019-04-21T07:32:27.777Z,1024.44
2019-04-21T07:33:50.918Z,1024.44
2019-04-21T07:34:37.975Z,1024.43
2019-04-21T07:35:38.021Z,1024.40
2019-04-21T07:36:51.818Z,1024.39
2019-04-21T07:37:51.020Z,1024.36
2019-04-21T07:38:50.286Z,1024.37
2019-04-21T07:39:54.635Z,1024.36
2019-04-21T07:40:53.903Z,1024.34
2019-04-21T07:41:59.276Z,1024.32
2019-04-21T07:43:04.147Z,1024.33
2019-04-21T07:44:04.357Z,1024.32
2019-04-21T07:45:13.333Z,1024.30
2019-04-21T07:46:17.196Z,1024.31
2019-04-21T07:47:27.095Z,1024.31
2019-04-21T07:48:32.248Z,1024.32
2019-04-21T07:49:36.926Z,1024.31
2019-04-21T07:50:41.676Z,1024.31
2019-04-21T07:51:45.266Z,1024.31
2019-04-21T07:52:53.244Z,1024.32
2019-04-21T07:53:55.885Z,1024.33
2019-04-21T07:55:05.442Z,1024.32
2019-04-21T07:55:42.948Z,1024.30
2019-04-21T07:56:56.054Z,1024.28
2019-04-21T07:58:10.859Z,1024.29
2019-04-21T07:59:09.032Z,1024.29
2019-04-21T08:00:31.919Z,1024.29
2019-04-21T08:01:25.102Z,1024.26
2019-04-21T08:02:22.174Z,1024.25
2019-04-21T08:03:35.510Z,1024.27
2019-04-21T08:05:49.942Z,1024.23
2019-04-21T08:06:49.544Z,1024.24
2019-04-21T08:08:11.109Z,1024.21
2019-04-21T08:08:53.074Z,1024.22
2019-04-21T08:09:51.045Z,1024.20
2019-04-21T08:10:57.004Z,1024.21
2019-04-21T08:12:00.328Z,1024.19
2019-04-21T08:13:09.907Z,1024.19
2019-04-21T08:14:19.205Z,1024.17
2019-04-21T08:15:24.962Z,1024.17
2019-04-21T08:16:24.424Z,1024.13
2019-04-21T08:17:23.721Z,1024.11
2019-04-21T08:18:34.810Z,1024.10
2019-04-21T08:19:38.315Z,1024.07
2019-04-21T08:20:34.669Z,1024.06
2019-04-21T08:21:51.449Z,1024.07
2019-04-21T08:22:51.817Z,1024.07
2019-04-21T08:23:55.460Z,1024.03
2019-04-21T08:24:58.802Z,1024.00
2019-04-21T08:26:13.838Z,1024.03
2019-04-21T08:27:13.835Z,1023.99
2019-04-21T08:28:13.877Z,1023.97
2019-04-21T08:29:33.394Z,1023.99
2019-04-21T08:30:21.472Z,1023.96
2019-04-21T08:31:32.272Z,1023.97
2019-04-21T08:32:42.096Z,1023.95
2019-04-21T08:33:38.405Z,1023.92
2019-04-21T08:34:43.237Z,1023.92
2019-04-21T08:36:49.286Z,1023.88
2019-04-21T08:37:50.947Z,1023.89
2019-04-21T08:38:54.571Z,1023.89
2019-04-21T08:40:19.404Z,1023.87
2019-04-21T08:42:03.311Z,1023.86
2019-04-21T08:43:20.560Z,1023.84
2019-04-21T08:44:24.308Z,1023.84
2019-04-21T08:45:25.486Z,1023.80
2019-04-21T08:46:25.834Z,1023.77
2019-04-21T08:47:35.302Z,1023.76
2019-04-21T08:48:37.560Z,1023.78
2019-04-21T08:49:44.164Z,1023.74
2019-04-21T08:50:46.194Z,1023.76
2019-04-21T08:51:51.692Z,1023.71
2019-04-21T08:52:58.327Z,1023.70
2019-04-21T08:54:16.807Z,1023.69
2019-04-21T08:56:12.223Z,1023.66
2019-04-21T08:57:08.099Z,1023.66
2019-04-21T08:58:22.741Z,1023.62
2019-04-21T08:59:25.473Z,1023.60
2019-04-21T09:00:26.554Z,1023.59
2019-04-21T09:01:33.347Z,1023.57
2019-04-21T09:02:35.055Z,1023.56
2019-04-21T09:03:35.796Z,1023.52
2019-04-21T09:04:41.035Z,1023.51
2019-04-21T09:05:47.484Z,1023.53
2019-04-21T09:07:00.317Z,1023.51
2019-04-21T09:07:57.408Z,1023.51
2019-04-21T09:09:01.558Z,1023.47
2019-04-21T09:10:02.994Z,1023.47
2019-04-21T09:11:09.200Z,1023.48
2019-04-21T09:12:10.928Z,1023.48
2019-04-21T09:13:10.283Z,1023.50
2019-04-21T09:14:17.865Z,1023.47
2019-04-21T09:15:25.839Z,1023.42
2019-04-21T09:16:26.655Z,1023.43
2019-04-21T09:17:28.576Z,1023.42
2019-04-21T09:18:32.448Z,1023.41
2019-04-21T09:19:51.393Z,1023.43
2019-04-21T09:21:51.543Z,1023.40
2019-04-21T09:22:54.296Z,1023.39
2019-04-21T09:23:56.321Z,1023.40
2019-04-21T09:25:01.625Z,1023.38
2019-04-21T09:26:11.833Z,1023.33
2019-04-21T09:27:08.422Z,1023.32
2019-04-21T09:28:12.624Z,1023.30
2019-04-21T09:29:10.901Z,1023.27
2019-04-21T09:30:08.853Z,1023.28
2019-04-21T09:31:12.245Z,1023.26
2019-04-21T09:32:20.271Z,1023.27
2019-04-21T09:33:20.860Z,1023.21
2019-04-21T09:34:34.323Z,1023.29
2019-04-21T09:35:29.316Z,1023.26
2019-04-21T09:36:40.272Z,1023.25
2019-04-21T09:37:47.353Z,1023.22
2019-04-21T09:38:45.727Z,1023.21
2019-04-21T09:39:51.677Z,1023.21
2019-04-21T09:40:54.450Z,1023.16
2019-04-21T09:41:59.136Z,1023.13
2019-04-21T09:43:04.730Z,1023.11
2019-04-21T09:44:08.732Z,1023.13
2019-04-21T09:45:11.999Z,1023.11
2019-04-21T09:46:14.236Z,1023.10
2019-04-21T09:47:22.922Z,1023.10
2019-04-21T09:48:24.297Z,1023.09
2019-04-21T09:49:31.125Z,1023.06
2019-04-21T09:50:31.835Z,1023.04
2019-04-21T09:51:35.953Z,1023.02
2019-04-21T09:52:48.898Z,1023.02
2019-04-21T09:53:54.599Z,1023.00
2019-04-21T09:54:58.648Z,1022.96
2019-04-21T09:55:59.357Z,1022.98
2019-04-21T09:57:03.516Z,1022.99
2019-04-21T09:58:10.113Z,1022.98
2019-04-21T09:59:16.445Z,1022.93
2019-04-21T10:00:18.295Z,1022.93
2019-04-21T10:01:22.798Z,1022.94
2019-04-21T10:02:32.771Z,1022.90
2019-04-21T10:03:24.093Z,1022.89
2019-04-21T10:04:28.991Z,1022.89
2019-04-21T10:05:33.788Z,1022.87
2019-04-21T10:06:39.508Z,1022.84
2019-04-21T10:07:44.198Z,1022.86
2019-04-21T10:08:50.376Z,1022.83
2019-04-21T10:09:52.442Z,1022.85
2019-04-21T10:10:56.906Z,1022.80
2019-04-21T10:12:00.831Z,1022.79
2019-04-21T10:13:05.034Z,1022.77
2019-04-21T10:14:09.734Z,1022.74
2019-04-21T10:15:14.218Z,1022.74
2019-04-21T10:16:17.679Z,1022.74
2019-04-21T10:17:21.999Z,1022.76
2019-04-21T10:18:27.321Z,1022.75
2019-04-21T10:19:31.583Z,1022.76
2019-04-21T10:20:36.335Z,1022.77
2019-04-21T10:21:40.251Z,1022.73
2019-04-21T10:22:44.768Z,1022.69
2019-04-21T10:23:48.495Z,1022.66
2019-04-21T10:24:54.239Z,1022.67
2019-04-21T10:25:58.689Z,1022.63
2019-04-21T10:27:04.094Z,1022.65
2019-04-21T10:28:07.277Z,1022.63
2019-04-21T10:29:19.757Z,1022.60
2019-04-21T10:30:16.052Z,1022.56
2019-04-21T10:31:19.235Z,1022.57
2019-04-21T10:32:25.262Z,1022.53
2019-04-21T10:33:28.306Z,1022.52
2019-04-21T10:34:32.461Z,1022.51
2019-04-21T10:35:37.125Z,1022.49
2019-04-21T10:36:41.264Z,1022.48
2019-04-21T10:37:59.419Z,1022.43
2019-04-21T10:38:53.139Z,1022.40
2019-04-21T10:39:55.720Z,1022.39
2019-04-21T10:40:59.249Z,1022.38
2019-04-21T10:42:03.583Z,1022.42
2019-04-21T10:43:10.752Z,1022.37
2019-04-21T10:44:13.409Z,1022.36
2019-04-21T10:45:17.036Z,1022.33
2019-04-21T10:46:20.925Z,1022.31
2019-04-21T10:47:25.301Z,1022.27
2019-04-21T10:48:31.733Z,1022.27
2019-04-21T10:49:34.944Z,1022.29
2019-04-21T10:50:38.943Z,1022.24
2019-04-21T10:51:43.350Z,1022.23
2019-04-21T10:52:47.360Z,1022.22
2019-04-21T10:53:52.859Z,1022.21
2019-04-21T10:55:23.366Z,1022.17
2019-04-21T10:56:12.259Z,1022.19
2019-04-21T10:57:06.340Z,1022.17
2019-04-21T10:58:10.840Z,1022.15
2019-04-21T10:59:14.364Z,1022.10
2019-04-21T11:00:18.798Z,1022.09
2019-04-21T11:01:23.183Z,1022.10
2019-04-21T11:02:27.128Z,1022.05
2019-04-21T11:03:33.074Z,1022.01
2019-04-21T11:04:38.360Z,1022.01
2019-04-21T11:05:40.728Z,1022.01
2019-04-21T11:06:44.793Z,1022.02
2019-04-21T11:08:01.163Z,1022.00
2019-04-21T11:08:55.639Z,1021.98
2019-04-21T11:09:58.088Z,1021.99
2019-04-21T11:11:03.637Z,1021.99
2019-04-21T11:12:08.250Z,1021.96
2019-04-21T11:13:12.469Z,1021.93
2019-04-21T11:14:15.758Z,1021.90
2019-04-21T11:15:21.161Z,1021.88
2019-04-21T11:16:24.704Z,1021.89
2019-04-21T11:17:30.245Z,1021.87
2019-04-21T11:18:33.997Z,1021.86
2019-04-21T11:19:38.971Z,1021.81
2019-04-21T11:20:42.792Z,1021.82
2019-04-21T11:21:47.101Z,1021.84
2019-04-21T11:22:51.440Z,1021.80
2019-04-21T11:23:56.518Z,1021.79
2019-04-21T11:25:00.775Z,1021.80
2019-04-21T11:26:04.612Z,1021.79
2019-04-21T11:27:09.042Z,1021.76
2019-04-21T11:28:14.442Z,1021.72
2019-04-21T11:29:19.095Z,1021.72
2019-04-21T11:30:23.329Z,1021.71
2019-04-21T11:31:27.211Z,1021.70
2019-04-21T11:32:31.129Z,1021.69
2019-04-21T11:33:35.707Z,1021.74
2019-04-21T11:34:40.999Z,1021.69
2019-04-21T11:35:45.493Z,1021.67
2019-04-21T11:36:49.914Z,1021.67
2019-04-21T11:38:04.020Z,1021.64
2019-04-21T11:39:08.584Z,1021.63
2019-04-21T11:40:08.542Z,1021.63
2019-04-21T11:41:07.711Z,1021.62
2019-04-21T11:42:12.020Z,1021.56
2019-04-21T11:43:15.769Z,1021.51
2019-04-21T11:44:22.588Z,1021.54
2019-04-21T11:45:24.448Z,1021.52
2019-04-21T11:46:28.774Z,1021.54
2019-04-21T11:47:34.252Z,1021.50
2019-04-21T11:48:37.573Z,1021.49
2019-04-21T11:49:43.152Z,1021.50
2019-04-21T11:50:46.755Z,1021.48
2019-04-21T11:51:51.180Z,1021.49
2019-04-21T11:52:56.819Z,1021.46
2019-04-21T11:54:01.082Z,1021.43
2019-04-21T11:55:04.734Z,1021.41
2019-04-21T11:56:09.035Z,1021.41
2019-04-21T11:57:20.489Z,1021.40
2019-04-21T11:58:18.160Z,1021.41
2019-04-21T11:59:22.192Z,1021.38
2019-04-21T12:00:27.385Z,1021.35
2019-04-21T12:01:31.865Z,1021.34
2019-04-21T12:02:35.505Z,1021.34
2019-04-21T12:03:40.045Z,1021.35
2019-04-21T12:04:45.417Z,1021.34
2019-04-21T12:05:48.819Z,1021.29
2019-04-21T12:06:54.569Z,1021.30
2019-04-21T12:07:58.505Z,1021.28
2019-04-21T12:09:04.567Z,1021.26
2019-04-21T12:10:06.543Z,1021.25
2019-04-21T12:11:11.415Z,1021.20
2019-04-21T12:12:15.426Z,1021.17
2019-04-21T12:13:20.418Z,1021.17
2019-04-21T12:14:24.422Z,1021.17
2019-04-21T12:15:29.174Z,1021.17
2019-04-21T12:16:33.315Z,1021.16
2019-04-21T12:17:38.206Z,1021.13
2019-04-21T12:18:42.948Z,1021.10
2019-04-21T12:19:46.810Z,1021.11
2019-04-21T12:20:51.634Z,1021.09
2019-04-21T12:22:05.286Z,1021.09
2019-04-21T12:23:00.418Z,1021.09
2019-04-21T12:24:04.623Z,1021.05
2019-04-21T12:25:09.346Z,1021.04
2019-04-21T12:26:13.929Z,1021.04
2019-04-21T12:27:18.188Z,1021.01
2019-04-21T12:28:23.830Z,1020.97
2019-04-21T12:29:27.010Z,1020.96
2019-04-21T12:30:31.595Z,1020.96
2019-04-21T12:31:35.913Z,1020.94
2019-04-21T12:32:40.392Z,1020.91
2019-04-21T12:33:45.908Z,1020.87
2019-04-21T12:34:51.727Z,1020.84
2019-04-21T12:35:53.818Z,1020.84
2019-04-21T12:36:59.103Z,1020.79
2019-04-21T12:38:02.894Z,1020.78
2019-04-21T12:39:08.719Z,1020.74
2019-04-21T12:40:12.712Z,1020.71
2019-04-21T12:41:16.256Z,1020.72
2019-04-21T12:42:20.844Z,1020.70
2019-04-21T12:43:26.452Z,1020.66
2019-04-21T12:44:29.781Z,1020.68
2019-04-21T12:45:34.242Z,1020.67
2019-04-21T12:46:40.041Z,1020.66
2019-04-21T12:47:44.051Z,1020.64
2019-04-21T12:48:47.651Z,1020.61
2019-04-21T12:49:52.133Z,1020.61
2019-04-21T12:50:57.553Z,1020.61
2019-04-21T12:52:01.866Z,1020.59
2019-04-21T12:53:05.475Z,1020.57
2019-04-21T12:54:09.960Z,1020.55
2019-04-21T12:55:15.405Z,1020.52
2019-04-21T12:56:19.798Z,1020.52
2019-04-21T12:57:23.457Z,1020.49
2019-04-21T12:58:28.974Z,1020.49
2019-04-21T12:59:32.903Z,1020.46
2019-04-21T13:00:36.813Z,1020.47
2019-04-21T13:01:41.288Z,1020.43
2019-04-21T13:02:45.651Z,1020.39
2019-04-21T13:03:50.101Z,1020.34
2019-04-21T13:04:55.786Z,1020.37
2019-04-21T13:05:58.941Z,1020.35
2019-04-21T13:07:03.743Z,1020.34
2019-04-21T13:08:09.168Z,1020.33
2019-04-21T13:09:16.064Z,1020.33
2019-04-21T13:10:18.053Z,1020.32
2019-04-21T13:11:21.479Z,1020.30
2019-04-21T13:12:26.888Z,1020.28
2019-04-21T13:13:30.258Z,1020.27
2019-04-21T13:14:35.820Z,1020.24
2019-04-21T13:15:39.793Z,1020.23
2019-04-21T13:16:43.607Z,1020.19
2019-04-21T13:17:48.129Z,1020.19
2019-04-21T13:18:53.421Z,1020.18
2019-04-21T13:19:57.042Z,1020.20
2019-04-21T13:21:02.699Z,1020.18
2019-04-21T13:22:06.055Z,1020.16
2019-04-21T13:23:10.333Z,1020.17
2019-04-21T13:24:15.941Z,1020.10
2019-04-21T13:25:20.103Z,1020.10
2019-04-21T13:26:32.765Z,1020.14
2019-04-21T13:27:28.882Z,1020.12
2019-04-21T13:28:32.574Z,1020.10
2019-04-21T13:29:36.969Z,1020.08
2019-04-21T13:30:42.277Z,1020.06
2019-04-21T13:31:45.835Z,1020.04
2019-04-21T13:32:51.376Z,1020.02
2019-04-21T13:33:55.744Z,1020.02
2019-04-21T13:34:59.202Z,1019.98
2019-04-21T13:36:04.995Z,1019.98
2019-04-21T13:37:08.156Z,1019.94
2019-04-21T13:38:24.483Z,1019.92
2019-04-21T13:39:44.406Z,1019.90
2019-04-21T13:40:39.892Z,1019.92
2019-04-21T13:41:42.015Z,1019.90
2019-04-21T13:42:40.211Z,1019.88
2019-04-21T13:43:37.206Z,1019.90
2019-04-21T13:44:41.580Z,1019.91
2019-04-21T13:45:45.977Z,1019.91
2019-04-21T13:46:50.384Z,1019.91
2019-04-21T13:47:54.832Z,1019.91
2019-04-21T13:48:59.290Z,1019.90
2019-04-21T13:50:05.279Z,1019.91
2019-04-21T13:51:09.114Z,1019.89
2019-04-21T13:52:12.991Z,1019.86
2019-04-21T13:53:17.033Z,1019.86
2019-04-21T13:54:21.947Z,1019.84
2019-04-21T13:55:25.889Z,1019.83
2019-04-21T13:56:30.322Z,1019.84
2019-04-21T13:57:34.781Z,1019.83
2019-04-21T13:58:40.143Z,1019.81
2019-04-21T13:59:44.508Z,1019.80
2019-04-21T14:00:50.383Z,1019.80
2019-04-21T14:01:53.880Z,1019.80
2019-04-21T14:02:58.621Z,1019.80